sensor_id;sensor_type;location;lat;lon;timestamp;P1;durP1;ratioP1;P2;durP2;ratioP2
55316;SDS011;41178;48.956;8.130;2023-05-10T00:03:11;2.07;;;1.97;;
55316;SDS011;41178;48.956;8.130;2023-05-10T00:08:13;2.87;;;1.87;;
55316;SDS011;41178;48.956;8.130;2023-05-10T00:13:15;2.07;;;1.70;;
55316;SDS011;41178;48.956;8.130;2023-05-10T00:18:16;2.07;;;1.80;;
55316;SDS011;41178;48.956;8.130;2023-05-10T00:23:18;1.93;;;1.83;;
55316;SDS011;41178;48.956;8.130;2023-05-10T00:28:20;3.43;;;1.83;;
55316;SDS011;41178;48.956;8.130;2023-05-10T00:33:22;2.20;;;2.10;;
55316;SDS011;41178;48.956;8.130;2023-05-10T00:38:23;2.20;;;1.63;;
55316;SDS011;41178;48.956;8.130;2023-05-10T00:43:25;2.07;;;1.87;;
55316;SDS011;41178;48.956;8.130;2023-05-10T00:48:28;2.20;;;2.10;;
55316;SDS011;41178;48.956;8.130;2023-05-10T00:53:30;3.47;;;1.83;;
55316;SDS011;41178;48.956;8.130;2023-05-10T00:58:33;2.20;;;2.10;;
55316;SDS011;41178;48.956;8.130;2023-05-10T01:03:35;1.80;;;1.70;;
55316;SDS011;41178;48.956;8.130;2023-05-10T01:08:39;2.03;;;1.80;;
55316;SDS011;41178;48.956;8.130;2023-05-10T01:13:42;3.20;;;2.23;;
55316;SDS011;41178;48.956;8.130;2023-05-10T01:18:44;2.20;;;2.10;;
55316;SDS011;41178;48.956;8.130;2023-05-10T01:34:51;2.43;;;2.20;;
55316;SDS011;41178;48.956;8.130;2023-05-10T01:40:03;4.13;;;2.43;;
55316;SDS011;41178;48.956;8.130;2023-05-10T01:45:14;3.27;;;3.00;;
55316;SDS011;41178;48.956;8.130;2023-05-10T01:50:27;4.23;;;3.10;;
55316;SDS011;41178;48.956;8.130;2023-05-10T01:55:32;3.60;;;3.30;;
55316;SDS011;41178;48.956;8.130;2023-05-10T02:00:37;3.57;;;3.27;;
55316;SDS011;41178;48.956;8.130;2023-05-10T02:05:44;3.87;;;3.57;;
55316;SDS011;41178;48.956;8.130;2023-05-10T02:10:48;3.63;;;3.33;;
55316;SDS011;41178;48.956;8.130;2023-05-10T02:15:52;4.30;;;4.00;;
55316;SDS011;41178;48.956;8.130;2023-05-10T02:20:55;3.90;;;3.50;;
55316;SDS011;41178;48.956;8.130;2023-05-10T02:25:59;6.33;;;4.20;;
55316;SDS011;41178;48.956;8.130;2023-05-10T02:31:03;4.73;;;4.07;;
55316;SDS011;41178;48.956;8.130;2023-05-10T02:36:07;4.83;;;4.33;;
55316;SDS011;41178;48.956;8.130;2023-05-10T02:41:10;4.37;;;3.63;;
55316;SDS011;41178;48.956;8.130;2023-05-10T02:46:13;4.27;;;3.80;;
55316;SDS011;41178;48.956;8.130;2023-05-10T02:51:15;4.87;;;3.97;;
55316;SDS011;41178;48.956;8.130;2023-05-10T02:56:29;4.30;;;3.90;;
55316;SDS011;41178;48.956;8.130;2023-05-10T03:01:34;5.20;;;4.70;;
55316;SDS011;41178;48.956;8.130;2023-05-10T03:06:36;5.60;;;3.80;;
55316;SDS011;41178;48.956;8.130;2023-05-10T03:16:56;4.60;;;4.10;;
55316;SDS011;41178;48.956;8.130;2023-05-10T03:22:07;4.80;;;3.97;;
55316;SDS011;41178;48.956;8.130;2023-05-10T03:27:11;4.87;;;4.17;;
55316;SDS011;41178;48.956;8.130;2023-05-10T03:32:16;4.13;;;3.73;;
55316;SDS011;41178;48.956;8.130;2023-05-10T03:37:17;5.93;;;4.13;;
55316;SDS011;41178;48.956;8.130;2023-05-10T03:42:19;4.50;;;3.90;;
55316;SDS011;41178;48.956;8.130;2023-05-10T03:47:21;4.47;;;4.07;;
55316;SDS011;41178;48.956;8.130;2023-05-10T03:52:22;4.03;;;3.73;;
55316;SDS011;41178;48.956;8.130;2023-05-10T03:57:24;3.77;;;3.47;;
55316;SDS011;41178;48.956;8.130;2023-05-10T04:02:25;4.10;;;3.70;;
55316;SDS011;41178;48.956;8.130;2023-05-10T04:07:27;4.20;;;3.80;;
55316;SDS011;41178;48.956;8.130;2023-05-10T04:12:29;4.37;;;3.97;;
55316;SDS011;41178;48.956;8.130;2023-05-10T04:17:31;5.20;;;4.03;;
55316;SDS011;41178;48.956;8.130;2023-05-10T04:22:32;4.40;;;4.00;;
55316;SDS011;41178;48.956;8.130;2023-05-10T04:27:34;4.20;;;3.90;;
55316;SDS011;41178;48.956;8.130;2023-05-10T04:32:35;7.33;;;4.07;;
55316;SDS011;41178;48.956;8.130;2023-05-10T04:37:37;6.10;;;4.47;;
55316;SDS011;41178;48.956;8.130;2023-05-10T04:42:42;5.30;;;4.53;;
55316;SDS011;41178;48.956;8.130;2023-05-10T04:47:45;5.03;;;4.53;;
55316;SDS011;41178;48.956;8.130;2023-05-10T04:52:46;6.37;;;5.40;;
55316;SDS011;41178;48.956;8.130;2023-05-10T04:57:48;5.33;;;4.83;;
55316;SDS011;41178;48.956;8.130;2023-05-10T05:02:49;5.67;;;4.67;;
55316;SDS011;41178;48.956;8.130;2023-05-10T05:07:51;4.77;;;4.37;;
55316;SDS011;41178;48.956;8.130;2023-05-10T05:12:53;3.87;;;3.57;;
55316;SDS011;41178;48.956;8.130;2023-05-10T05:17:54;4.10;;;3.70;;
55316;SDS011;41178;48.956;8.130;2023-05-10T05:22:56;4.77;;;4.30;;
55316;SDS011;41178;48.956;8.130;2023-05-10T05:27:58;4.20;;;3.80;;
55316;SDS011;41178;48.956;8.130;2023-05-10T05:32:59;4.07;;;3.60;;
55316;SDS011;41178;48.956;8.130;2023-05-10T05:38:01;3.70;;;3.30;;
55316;SDS011;41178;48.956;8.130;2023-05-10T05:43:03;3.30;;;3.00;;
55316;SDS011;41178;48.956;8.130;2023-05-10T05:48:04;4.20;;;3.47;;
55316;SDS011;41178;48.956;8.130;2023-05-10T05:53:06;4.87;;;3.57;;
55316;SDS011;41178;48.956;8.130;2023-05-10T05:58:08;3.70;;;3.40;;
55316;SDS011;41178;48.956;8.130;2023-05-10T06:03:09;3.70;;;3.10;;
55316;SDS011;41178;48.956;8.130;2023-05-10T06:08:11;3.20;;;2.90;;
55316;SDS011;41178;48.956;8.130;2023-05-10T06:13:13;3.70;;;2.70;;
55316;SDS011;41178;48.956;8.130;2023-05-10T06:18:15;2.80;;;2.60;;
55316;SDS011;41178;48.956;8.130;2023-05-10T06:23:16;3.30;;;2.60;;
55316;SDS011;41178;48.956;8.130;2023-05-10T06:28:18;3.23;;;2.63;;
55316;SDS011;41178;48.956;8.130;2023-05-10T06:33:19;2.63;;;2.43;;
55316;SDS011;41178;48.956;8.130;2023-05-10T06:38:21;3.13;;;2.40;;
55316;SDS011;41178;48.956;8.130;2023-05-10T06:43:23;2.43;;;2.23;;
55316;SDS011;41178;48.956;8.130;2023-05-10T06:48:26;2.57;;;2.37;;
55316;SDS011;41178;48.956;8.130;2023-05-10T06:53:27;2.90;;;2.70;;
55316;SDS011;41178;48.956;8.130;2023-05-10T06:58:29;2.70;;;2.50;;
55316;SDS011;41178;48.956;8.130;2023-05-10T07:03:30;3.00;;;2.70;;
55316;SDS011;41178;48.956;8.130;2023-05-10T07:08:33;2.90;;;2.67;;
55316;SDS011;41178;48.956;8.130;2023-05-10T07:13:35;2.93;;;2.53;;
55316;SDS011;41178;48.956;8.130;2023-05-10T07:18:37;2.37;;;2.17;;
55316;SDS011;41178;48.956;8.130;2023-05-10T07:23:39;3.40;;;2.07;;
55316;SDS011;41178;48.956;8.130;2023-05-10T07:28:43;4.07;;;2.67;;
55316;SDS011;41178;48.956;8.130;2023-05-10T07:33:44;3.03;;;2.00;;
55316;SDS011;41178;48.956;8.130;2023-05-10T07:38:47;2.17;;;1.97;;
55316;SDS011;41178;48.956;8.130;2023-05-10T07:43:48;2.17;;;2.07;;
55316;SDS011;41178;48.956;8.130;2023-05-10T07:48:50;2.10;;;2.00;;
55316;SDS011;41178;48.956;8.130;2023-05-10T07:53:51;2.17;;;1.97;;
55316;SDS011;41178;48.956;8.130;2023-05-10T07:58:53;4.00;;;2.10;;
55316;SDS011;41178;48.956;8.130;2023-05-10T08:03:55;2.30;;;2.20;;
55316;SDS011;41178;48.956;8.130;2023-05-10T08:08:57;2.53;;;2.33;;
55316;SDS011;41178;48.956;8.130;2023-05-10T08:13:58;2.33;;;1.63;;
55316;SDS011;41178;48.956;8.130;2023-05-10T08:19:00;1.60;;;1.50;;
55316;SDS011;41178;48.956;8.130;2023-05-10T08:24:02;2.27;;;2.10;;
55316;SDS011;41178;48.956;8.130;2023-05-10T08:29:04;2.70;;;2.10;;
55316;SDS011;41178;48.956;8.130;2023-05-10T08:34:06;2.00;;;1.80;;
55316;SDS011;41178;48.956;8.130;2023-05-10T08:39:07;6.73;;;2.70;;
55316;SDS011;41178;48.956;8.130;2023-05-10T08:44:23;1.70;;;1.60;;
55316;SDS011;41178;48.956;8.130;2023-05-10T08:49:25;1.73;;;1.50;;
55316;SDS011;41178;48.956;8.130;2023-05-10T08:54:29;1.70;;;1.60;;
55316;SDS011;41178;48.956;8.130;2023-05-10T08:59:32;1.50;;;1.40;;
55316;SDS011;41178;48.956;8.130;2023-05-10T09:04:34;1.70;;;1.60;;
55316;SDS011;41178;48.956;8.130;2023-05-10T11:51:46;5.13;;;1.80;;
55316;SDS011;41178;48.956;8.130;2023-05-10T11:56:48;4.67;;;2.80;;
55316;SDS011;41178;48.956;8.130;2023-05-10T12:01:51;2.47;;;1.63;;
55316;SDS011;41178;48.956;8.130;2023-05-10T12:06:53;2.47;;;1.83;;
55316;SDS011;41178;48.956;8.130;2023-05-10T12:11:55;2.07;;;1.87;;
55316;SDS011;41178;48.956;8.130;2023-05-10T12:17:00;2.80;;;1.70;;
55316;SDS011;41178;48.956;8.130;2023-05-10T12:22:04;2.60;;;1.70;;
55316;SDS011;41178;48.956;8.130;2023-05-10T12:27:07;2.03;;;1.70;;
55316;SDS011;41178;48.956;8.130;2023-05-10T12:32:09;1.43;;;1.20;;
55316;SDS011;41178;48.956;8.130;2023-05-10T12:37:11;1.40;;;1.30;;
55316;SDS011;41178;48.956;8.130;2023-05-10T12:42:13;2.03;;;1.60;;
55316;SDS011;41178;48.956;8.130;2023-05-10T12:47:15;2.37;;;1.40;;
55316;SDS011;41178;48.956;8.130;2023-05-10T12:52:16;3.00;;;1.33;;
55316;SDS011;41178;48.956;8.130;2023-05-10T12:57:18;4.27;;;1.90;;
55316;SDS011;41178;48.956;8.130;2023-05-10T13:02:21;1.70;;;1.40;;
55316;SDS011;41178;48.956;8.130;2023-05-10T13:07:24;2.27;;;1.33;;
55316;SDS011;41178;48.956;8.130;2023-05-10T13:12:25;2.37;;;1.43;;
55316;SDS011;41178;48.956;8.130;2023-05-10T13:17:27;1.57;;;1.30;;
55316;SDS011;41178;48.956;8.130;2023-05-10T13:22:29;1.40;;;1.27;;
55316;SDS011;41178;48.956;8.130;2023-05-10T13:27:40;1.33;;;1.23;;
55316;SDS011;41178;48.956;8.130;2023-05-10T13:32:42;1.40;;;1.30;;
55316;SDS011;41178;48.956;8.130;2023-05-10T13:37:43;2.20;;;1.30;;
55316;SDS011;41178;48.956;8.130;2023-05-10T13:42:45;1.77;;;1.67;;
55316;SDS011;41178;48.956;8.130;2023-05-10T13:47:47;3.10;;;1.47;;
55316;SDS011;41178;48.956;8.130;2023-05-10T13:52:48;1.20;;;1.20;;
55316;SDS011;41178;48.956;8.130;2023-05-10T13:57:50;2.43;;;2.00;;
55316;SDS011;41178;48.956;8.130;2023-05-10T14:02:51;3.23;;;1.90;;
55316;SDS011;41178;48.956;8.130;2023-05-10T14:07:53;3.73;;;2.30;;
55316;SDS011;41178;48.956;8.130;2023-05-10T14:12:55;3.77;;;2.00;;
55316;SDS011;41178;48.956;8.130;2023-05-10T14:17:59;4.70;;;2.77;;
55316;SDS011;41178;48.956;8.130;2023-05-10T14:23:01;2.67;;;1.93;;
55316;SDS011;41178;48.956;8.130;2023-05-10T14:28:03;1.60;;;1.50;;
55316;SDS011;41178;48.956;8.130;2023-05-10T14:33:05;2.03;;;1.80;;
55316;SDS011;41178;48.956;8.130;2023-05-10T14:38:07;1.77;;;1.20;;
55316;SDS011;41178;48.956;8.130;2023-05-10T14:43:08;3.77;;;1.80;;
55316;SDS011;41178;48.956;8.130;2023-05-10T14:48:10;1.40;;;1.30;;
55316;SDS011;41178;48.956;8.130;2023-05-10T14:53:16;7.83;;;1.30;;
55316;SDS011;41178;48.956;8.130;2023-05-10T14:58:18;1.77;;;1.50;;
55316;SDS011;41178;48.956;8.130;2023-05-10T15:03:19;1.67;;;1.40;;
55316;SDS011;41178;48.956;8.130;2023-05-10T15:08:21;1.53;;;1.17;;
55316;SDS011;41178;48.956;8.130;2023-05-10T15:13:25;1.20;;;1.20;;
55316;SDS011;41178;48.956;8.130;2023-05-10T15:18:26;2.50;;;1.70;;
55316;SDS011;41178;48.956;8.130;2023-05-10T15:23:28;1.97;;;1.40;;
55316;SDS011;41178;48.956;8.130;2023-05-10T15:28:31;1.80;;;1.50;;
55316;SDS011;41178;48.956;8.130;2023-05-10T15:33:35;1.03;;;1.03;;
55316;SDS011;41178;48.956;8.130;2023-05-10T15:38:38;1.43;;;1.33;;
55316;SDS011;41178;48.956;8.130;2023-05-10T15:43:39;1.43;;;1.40;;
55316;SDS011;41178;48.956;8.130;2023-05-10T15:48:41;1.20;;;1.10;;
55316;SDS011;41178;48.956;8.130;2023-05-10T15:53:44;2.73;;;1.40;;
55316;SDS011;41178;48.956;8.130;2023-05-10T15:59:06;4.23;;;1.30;;
55316;SDS011;41178;48.956;8.130;2023-05-10T16:04:08;1.47;;;1.47;;
55316;SDS011;41178;48.956;8.130;2023-05-10T16:09:10;5.27;;;3.53;;
55316;SDS011;41178;48.956;8.130;2023-05-10T16:14:12;1.60;;;1.50;;
55316;SDS011;41178;48.956;8.130;2023-05-10T16:19:14;1.00;;;1.00;;
55316;SDS011;41178;48.956;8.130;2023-05-10T16:24:16;2.20;;;2.00;;
55316;SDS011;41178;48.956;8.130;2023-05-10T16:29:17;1.40;;;1.30;;
55316;SDS011;41178;48.956;8.130;2023-05-10T16:34:19;1.30;;;1.30;;
55316;SDS011;41178;48.956;8.130;2023-05-10T16:39:24;1.30;;;1.30;;
55316;SDS011;41178;48.956;8.130;2023-05-10T16:44:26;1.53;;;1.00;;
55316;SDS011;41178;48.956;8.130;2023-05-10T16:49:27;1.20;;;1.20;;
55316;SDS011;41178;48.956;8.130;2023-05-10T16:54:29;1.10;;;1.00;;
55316;SDS011;41178;48.956;8.130;2023-05-10T16:59:31;3.27;;;1.23;;
55316;SDS011;41178;48.956;8.130;2023-05-10T17:04:33;1.00;;;1.00;;
55316;SDS011;41178;48.956;8.130;2023-05-10T17:09:35;1.10;;;1.10;;
55316;SDS011;41178;48.956;8.130;2023-05-10T17:14:36;1.27;;;1.17;;
55316;SDS011;41178;48.956;8.130;2023-05-10T17:19:38;2.27;;;1.30;;
55316;SDS011;41178;48.956;8.130;2023-05-10T17:24:40;3.57;;;1.60;;
55316;SDS011;41178;48.956;8.130;2023-05-10T17:29:42;1.70;;;1.60;;
55316;SDS011;41178;48.956;8.130;2023-05-10T17:34:43;2.20;;;1.53;;
55316;SDS011;41178;48.956;8.130;2023-05-10T17:39:45;1.50;;;1.40;;
55316;SDS011;41178;48.956;8.130;2023-05-10T17:44:47;1.30;;;1.30;;
55316;SDS011;41178;48.956;8.130;2023-05-10T17:49:48;1.30;;;1.30;;
55316;SDS011;41178;48.956;8.130;2023-05-10T17:54:50;1.20;;;1.20;;
55316;SDS011;41178;48.956;8.130;2023-05-10T17:59:53;1.40;;;1.40;;
55316;SDS011;41178;48.956;8.130;2023-05-10T18:04:55;1.37;;;1.33;;
55316;SDS011;41178;48.956;8.130;2023-05-10T18:10:00;1.13;;;1.13;;
55316;SDS011;41178;48.956;8.130;2023-05-10T18:15:01;1.37;;;1.30;;
55316;SDS011;41178;48.956;8.130;2023-05-10T18:20:04;1.00;;;1.00;;
55316;SDS011;41178;48.956;8.130;2023-05-10T18:25:06;3.03;;;1.73;;
55316;SDS011;41178;48.956;8.130;2023-05-10T18:30:08;1.97;;;1.30;;
55316;SDS011;41178;48.956;8.130;2023-05-10T18:35:12;1.50;;;1.50;;
55316;SDS011;41178;48.956;8.130;2023-05-10T18:40:15;2.33;;;1.20;;
55316;SDS011;41178;48.956;8.130;2023-05-10T18:45:17;1.57;;;1.37;;
55316;SDS011;41178;48.956;8.130;2023-05-10T18:50:19;1.93;;;1.60;;
55316;SDS011;41178;48.956;8.130;2023-05-10T18:55:23;1.60;;;1.30;;
55316;SDS011;41178;48.956;8.130;2023-05-10T19:00:26;1.67;;;1.57;;
55316;SDS011;41178;48.956;8.130;2023-05-10T19:05:27;1.50;;;1.40;;
55316;SDS011;41178;48.956;8.130;2023-05-10T19:10:30;1.70;;;1.60;;
55316;SDS011;41178;48.956;8.130;2023-05-10T19:15:31;1.73;;;1.63;;
55316;SDS011;41178;48.956;8.130;2023-05-10T19:20:33;1.87;;;1.77;;
55316;SDS011;41178;48.956;8.130;2023-05-10T19:25:36;1.47;;;1.37;;
55316;SDS011;41178;48.956;8.130;2023-05-10T19:30:39;1.77;;;1.67;;
55316;SDS011;41178;48.956;8.130;2023-05-10T19:35:41;1.80;;;1.70;;
55316;SDS011;41178;48.956;8.130;2023-05-10T19:40:42;2.10;;;2.00;;
55316;SDS011;41178;48.956;8.130;2023-05-10T19:45:45;2.23;;;1.50;;
55316;SDS011;41178;48.956;8.130;2023-05-10T19:50:46;1.60;;;1.50;;
55316;SDS011;41178;48.956;8.130;2023-05-10T19:55:48;2.83;;;1.40;;
55316;SDS011;41178;48.956;8.130;2023-05-10T20:00:50;1.80;;;1.70;;
55316;SDS011;41178;48.956;8.130;2023-05-10T20:05:51;1.70;;;1.60;;
55316;SDS011;41178;48.956;8.130;2023-05-10T20:10:53;1.50;;;1.40;;
55316;SDS011;41178;48.956;8.130;2023-05-10T20:15:58;4.27;;;1.57;;
55316;SDS011;41178;48.956;8.130;2023-05-10T20:21:00;2.50;;;2.30;;
55316;SDS011;41178;48.956;8.130;2023-05-10T20:26:01;2.10;;;2.00;;
55316;SDS011;41178;48.956;8.130;2023-05-10T20:31:03;2.30;;;1.60;;
55316;SDS011;41178;48.956;8.130;2023-05-10T20:36:05;1.60;;;1.50;;
55316;SDS011;41178;48.956;8.130;2023-05-10T20:41:09;3.67;;;1.50;;
55316;SDS011;41178;48.956;8.130;2023-05-10T20:46:11;1.60;;;1.50;;
55316;SDS011;41178;48.956;8.130;2023-05-10T20:51:13;1.80;;;1.70;;
55316;SDS011;41178;48.956;8.130;2023-05-10T20:56:15;1.50;;;1.40;;
55316;SDS011;41178;48.956;8.130;2023-05-10T21:01:16;1.70;;;1.60;;
55316;SDS011;41178;48.956;8.130;2023-05-10T21:06:18;3.43;;;1.70;;
55316;SDS011;41178;48.956;8.130;2023-05-10T21:11:20;2.30;;;1.73;;
55316;SDS011;41178;48.956;8.130;2023-05-10T21:16:22;1.90;;;1.60;;
55316;SDS011;41178;48.956;8.130;2023-05-10T21:21:24;2.33;;;2.13;;
55316;SDS011;41178;48.956;8.130;2023-05-10T21:26:26;2.27;;;1.47;;
55316;SDS011;41178;48.956;8.130;2023-05-10T21:31:27;1.73;;;1.63;;
55316;SDS011;41178;48.956;8.130;2023-05-10T21:36:29;2.23;;;1.50;;
55316;SDS011;41178;48.956;8.130;2023-05-10T21:41:31;1.57;;;1.47;;
55316;SDS011;41178;48.956;8.130;2023-05-10T21:46:32;1.80;;;1.70;;
55316;SDS011;41178;48.956;8.130;2023-05-10T21:51:34;1.50;;;1.40;;
55316;SDS011;41178;48.956;8.130;2023-05-10T21:56:36;5.47;;;1.60;;
55316;SDS011;41178;48.956;8.130;2023-05-10T22:01:38;2.00;;;1.70;;
55316;SDS011;41178;48.956;8.130;2023-05-10T22:06:39;3.80;;;1.50;;
55316;SDS011;41178;48.956;8.130;2023-05-10T22:11:41;1.63;;;1.40;;
55316;SDS011;41178;48.956;8.130;2023-05-10T22:16:43;9.67;;;2.33;;
55316;SDS011;41178;48.956;8.130;2023-05-10T22:21:45;1.77;;;1.67;;
55316;SDS011;41178;48.956;8.130;2023-05-10T22:26:46;1.50;;;1.40;;
55316;SDS011;41178;48.956;8.130;2023-05-10T22:31:48;1.43;;;1.33;;
55316;SDS011;41178;48.956;8.130;2023-05-10T22:36:50;2.30;;;1.40;;
55316;SDS011;41178;48.956;8.130;2023-05-10T22:41:51;1.87;;;1.60;;
55316;SDS011;41178;48.956;8.130;2023-05-10T22:46:53;2.50;;;1.70;;
55316;SDS011;41178;48.956;8.130;2023-05-10T22:51:55;1.63;;;1.53;;
55316;SDS011;41178;48.956;8.130;2023-05-10T22:56:56;2.30;;;1.80;;
55316;SDS011;41178;48.956;8.130;2023-05-10T23:01:58;2.17;;;1.53;;
55316;SDS011;41178;48.956;8.130;2023-05-10T23:07:00;2.33;;;1.60;;
55316;SDS011;41178;48.956;8.130;2023-05-10T23:12:01;1.60;;;1.50;;
55316;SDS011;41178;48.956;8.130;2023-05-10T23:17:03;1.60;;;1.50;;
55316;SDS011;41178;48.956;8.130;2023-05-10T23:22:05;1.63;;;1.40;;
55316;SDS011;41178;48.956;8.130;2023-05-10T23:27:06;2.17;;;1.60;;
55316;SDS011;41178;48.956;8.130;2023-05-10T23:32:08;1.60;;;1.50;;
55316;SDS011;41178;48.956;8.130;2023-05-10T23:37:10;1.53;;;1.43;;
55316;SDS011;41178;48.956;8.130;2023-05-10T23:42:11;3.30;;;1.80;;
55316;SDS011;41178;48.956;8.130;2023-05-10T23:47:13;2.07;;;1.97;;
55316;SDS011;41178;48.956;8.130;2023-05-10T23:52:15;1.80;;;1.67;;
55316;SDS011;41178;48.956;8.130;2023-05-10T23:57:17;2.00;;;1.90;;
